Carnival Splendor — 3EUS — position and weather

sailwx.info

Track history (hours):
 
Tides and Currents Weather Stations Pressure Air Temp Water Temp Dewpoint Dewpoint Depression Visibility Wind Speed Wind Dir Waves Ship Positions

Carnival Splendor

Last reported at 2017-May-23 02:35 UTC. Time now 2017-May-23 08:59 UTC.
Position N 26°13' W 076°26'.

Length 289 m; draft 8.3 m.

Type: Ship. MMSI: 372808000.

Date/timePositionNaut miles runAvg speedWind from/ knotsBaromVisibWave heightAir tempDewpointWater temp
2017-May-23 02:35N 26°13' W 076°26'417.9
2017-May-23 02:20N 26°10' W 076°29'147 5.9
2017-May-22 01:17N 26°15' W 079°13'510.9
2017-May-22 00:52N 26°14' W 079°18'610.8
2017-May-22 00:19N 26°13' W 079°24'310.8
2017-May-22 00:01N 26°12' W 079°28'611.0
2017-May-21 23:30N 26°11' W 079°34'611.3
2017-May-21 23:01N 26°10' W 079°40'611.1
2017-May-21 22:31N 26°09' W 079°46'611.1
2017-May-21 22:00N 26°08' W 079°52'611.1
2017-May-21 21:30N 26°06' W 079°58'4 9.0
2017-May-21 21:00N 26°06' W 080°03'4 8.1
2017-May-21 20:31N 26°05' W 080°07'0 0.5
2017-May-21 20:00N 26°05' W 080°07'0 0.0
2017-May-21 19:30N 26°05' W 080°07'0 0.0
2017-May-21 19:00N 26°05' W 080°07'0 0.0
2017-May-21 18:27N 26°05' W 080°07'0 0.0
2017-May-21 17:50N 26°05' W 080°07'0 0.0
2017-May-21 17:29N 26°05' W 080°07'0 0.0
2017-May-21 16:59N 26°05' W 080°07'0 0.0
2017-May-21 16:26N 26°05' W 080°07'0 0.0
2017-May-21 15:53N 26°05' W 080°07'0 0.0
2017-May-21 15:19N 26°05' W 080°07'0 0.0
2017-May-21 14:58N 26°05' W 080°07'0 0.0
2017-May-21 14:28N 26°05' W 080°07'0 0.0
2017-May-21 13:22N 26°05' W 080°07'0 0.0
2017-May-21 13:00N 26°05' W 080°07'0 0.0
2017-May-21 12:30N 26°05' W 080°07'0 0.0
2017-May-21 11:57N 26°05' W 080°07'0 0.0
2017-May-21 11:24N 26°05' W 080°07'0 0.0
2017-May-21 10:50N 26°05' W 080°07'0 0.0
2017-May-21 10:29N 26°05' W 080°07'0 0.0
2017-May-21 09:56N 26°05' W 080°07'0 0.0
2017-May-21 09:29N 26°05' W 080°07'0 0.3
2017-May-21 09:00N 26°05' W 080°07'4 7.6
2017-May-21 08:30N 26°05' W 080°03'5 9.5
2017-May-21 08:01N 26°03' W 079°58'714.9
2017-May-21 07:31N 25°58' W 079°52'815.6
2017-May-21 07:01N 25°53' W 079°45'816.3
2017-May-21 06:31N 25°46' W 079°41'918.0
2017-May-21 06:01N 25°37' W 079°39'917.7
2017-May-21 05:30N 25°28' W 079°38'30716.6
2017-May-20 11:00N 21°30' W 076°06'40216.7 080 / 271018.0 5.4 26.023.125.0
2017-May-19 11:00N 15°48' W 072°24'172 3.5 090 / 351015.0 5.4 28.023.725.0
2017-May-17 10:00N 14°36' W 069°42'225 9.0 090 / 321015.010.8 26.023.126.0
2017-May-16 09:00N 18°06' W 068°18'27111.3 120 / 281017.0 27.024.126.0
2017-May-15 09:00N 21°42' W 071°12'52016.7 110 / 201016.010.8 25.022.026.0
2017-May-14 01:54N 26°16' W 079°15'820.6
2017-May-14 01:30N 26°14' W 079°24'1020.8
2017-May-14 01:00N 26°12' W 079°36'1021.0
2017-May-14 00:30N 26°09' W 079°47'1019.5
2017-May-14 00:00N 26°08' W 079°58'713.4
2017-May-13 23:30N 26°06' W 080°05'2 4.1
2017-May-13 23:00N 26°05' W 080°07'0 0.0
2017-May-13 22:26N 26°05' W 080°07'0 0.0
2017-May-13 21:53N 26°05' W 080°07'0 0.0
2017-May-13 21:20N 26°05' W 080°07'0 0.0
2017-May-13 20:59N 26°05' W 080°07'0 0.0
2017-May-13 20:28N 26°05' W 080°07'0 0.0
2017-May-13 19:55N 26°05' W 080°07'0 0.0
2017-May-13 19:19N 26°05' W 080°07'0 0.0
2017-May-13 18:49N 26°05' W 080°07'0 0.0
2017-May-13 18:16N 26°05' W 080°07'0 0.0
2017-May-13 17:57N 26°05' W 080°07'0 0.0
2017-May-13 17:24N 26°05' W 080°07'0 0.0
2017-May-13 16:52N 26°05' W 080°07'0 0.0
2017-May-13 16:29N 26°05' W 080°07'0 0.0
2017-May-13 15:59N 26°05' W 080°07'0 0.0
2017-May-13 15:26N 26°05' W 080°07'0 0.0
2017-May-13 14:53N 26°05' W 080°07'0 0.0
2017-May-13 14:19N 26°05' W 080°07'0 0.0
2017-May-13 13:28N 26°05' W 080°07'0 0.0
2017-May-13 12:55N 26°05' W 080°07'0 0.0
2017-May-13 12:22N 26°05' W 080°07'0 0.0
2017-May-13 12:00N 26°05' W 080°07'0 0.0
2017-May-13 11:30N 26°05' W 080°07'0 0.0
2017-May-13 10:57N 26°05' W 080°07'0 0.0
2017-May-13 10:24N 26°05' W 080°07'0 0.0
2017-May-13 09:57N 26°05' W 080°07'0 0.0
2017-May-13 09:30N 26°05' W 080°07'0 1.0
2017-May-13 09:00N 26°06' W 080°07'510.2
2017-May-13 08:30N 26°05' W 080°01'714.8
2017-May-13 08:00N 26°02' W 079°54'918.7
2017-May-13 07:30N 25°58' W 079°44'816.6
2017-May-13 07:00N 25°51' W 079°39'918.2
2017-May-13 06:30N 25°42' W 079°40'918.1
2017-May-13 06:00N 25°33' W 079°39'917.8
2017-May-13 05:30N 25°25' W 079°37'917.7
2017-May-13 05:00N 25°16' W 079°36'917.8
2017-May-13 04:30N 25°07' W 079°36'1020.7
2017-May-13 04:00N 24°57' W 079°36'1121.5
2017-May-13 03:30N 24°46' W 079°39'1121.2
2017-May-13 03:00N 24°36' W 079°41'  
Track history (hours):
 
Tides and Currents Weather Stations Pressure Air Temp Water Temp Dewpoint Dewpoint Depression Visibility Wind Speed Wind Dir Waves Ship Positions

Carnival Splendor

Last reported at 2017-May-23 02:35 UTC. Time now 2017-May-23 08:59 UTC.
Position N 26°13' W 076°26'.

Length 289 m; draft 8.3 m.

Type: Ship. MMSI: 372808000.

Date/timePositionNaut miles runAvg speedWind from/ knotsBaromVisibWave heightAir tempDewpointWater temp
2017-May-23 02:35N 26°13' W 076°26'417.9
2017-May-23 02:20N 26°10' W 076°29'147 5.9
2017-May-22 01:17N 26°15' W 079°13'510.9
2017-May-22 00:52N 26°14' W 079°18'610.8
2017-May-22 00:19N 26°13' W 079°24'310.8
2017-May-22 00:01N 26°12' W 079°28'611.0
2017-May-21 23:30N 26°11' W 079°34'611.3
2017-May-21 23:01N 26°10' W 079°40'611.1
2017-May-21 22:31N 26°09' W 079°46'611.1
2017-May-21 22:00N 26°08' W 079°52'611.1
2017-May-21 21:30N 26°06' W 079°58'4 9.0
2017-May-21 21:00N 26°06' W 080°03'4 8.1
2017-May-21 20:31N 26°05' W 080°07'0 0.5
2017-May-21 20:00N 26°05' W 080°07'0 0.0
2017-May-21 19:30N 26°05' W 080°07'0 0.0
2017-May-21 19:00N 26°05' W 080°07'0 0.0
2017-May-21 18:27N 26°05' W 080°07'0 0.0
2017-May-21 17:50N 26°05' W 080°07'0 0.0
2017-May-21 17:29N 26°05' W 080°07'0 0.0
2017-May-21 16:59N 26°05' W 080°07'0 0.0
2017-May-21 16:26N 26°05' W 080°07'0 0.0
2017-May-21 15:53N 26°05' W 080°07'0 0.0
2017-May-21 15:19N 26°05' W 080°07'0 0.0
2017-May-21 14:58N 26°05' W 080°07'0 0.0
2017-May-21 14:28N 26°05' W 080°07'0 0.0
2017-May-21 13:22N 26°05' W 080°07'0 0.0
2017-May-21 13:00N 26°05' W 080°07'0 0.0
2017-May-21 12:30N 26°05' W 080°07'0 0.0
2017-May-21 11:57N 26°05' W 080°07'0 0.0
2017-May-21 11:24N 26°05' W 080°07'0 0.0
2017-May-21 10:50N 26°05' W 080°07'0 0.0
2017-May-21 10:29N 26°05' W 080°07'0 0.0
2017-May-21 09:56N 26°05' W 080°07'0 0.0
2017-May-21 09:29N 26°05' W 080°07'0 0.3
2017-May-21 09:00N 26°05' W 080°07'4 7.6
2017-May-21 08:30N 26°05' W 080°03'5 9.5
2017-May-21 08:01N 26°03' W 079°58'714.9
2017-May-21 07:31N 25°58' W 079°52'815.6
2017-May-21 07:01N 25°53' W 079°45'816.3
2017-May-21 06:31N 25°46' W 079°41'918.0
2017-May-21 06:01N 25°37' W 079°39'917.7
2017-May-21 05:30N 25°28' W 079°38'30716.6
2017-May-20 11:00N 21°30' W 076°06'40216.7 080 / 271018.0 5.4 26.023.125.0
2017-May-19 11:00N 15°48' W 072°24'172 3.5 090 / 351015.0 5.4 28.023.725.0
2017-May-17 10:00N 14°36' W 069°42'225 9.0 090 / 321015.010.8 26.023.126.0
2017-May-16 09:00N 18°06' W 068°18'27111.3 120 / 281017.0 27.024.126.0
2017-May-15 09:00N 21°42' W 071°12'52016.7 110 / 201016.010.8 25.022.026.0
2017-May-14 01:54N 26°16' W 079°15'820.6
2017-May-14 01:30N 26°14' W 079°24'1020.8
2017-May-14 01:00N 26°12' W 079°36'1021.0
2017-May-14 00:30N 26°09' W 079°47'1019.5
2017-May-14 00:00N 26°08' W 079°58'713.4
2017-May-13 23:30N 26°06' W 080°05'2 4.1
2017-May-13 23:00N 26°05' W 080°07'0 0.0
2017-May-13 22:26N 26°05' W 080°07'0 0.0
2017-May-13 21:53N 26°05' W 080°07'0 0.0
2017-May-13 21:20N 26°05' W 080°07'0 0.0
2017-May-13 20:59N 26°05' W 080°07'0 0.0
2017-May-13 20:28N 26°05' W 080°07'0 0.0
2017-May-13 19:55N 26°05' W 080°07'0 0.0
2017-May-13 19:19N 26°05' W 080°07'0 0.0
2017-May-13 18:49N 26°05' W 080°07'0 0.0
2017-May-13 18:16N 26°05' W 080°07'0 0.0
2017-May-13 17:57N 26°05' W 080°07'0 0.0
2017-May-13 17:24N 26°05' W 080°07'0 0.0
2017-May-13 16:52N 26°05' W 080°07'0 0.0
2017-May-13 16:29N 26°05' W 080°07'0 0.0
2017-May-13 15:59N 26°05' W 080°07'0 0.0
2017-May-13 15:26N 26°05' W 080°07'0 0.0
2017-May-13 14:53N 26°05' W 080°07'0 0.0
2017-May-13 14:19N 26°05' W 080°07'0 0.0
2017-May-13 13:28N 26°05' W 080°07'0 0.0
2017-May-13 12:55N 26°05' W 080°07'0 0.0
2017-May-13 12:22N 26°05' W 080°07'0 0.0
2017-May-13 12:00N 26°05' W 080°07'0 0.0
2017-May-13 11:30N 26°05' W 080°07'0 0.0
2017-May-13 10:57N 26°05' W 080°07'0 0.0
2017-May-13 10:24N 26°05' W 080°07'0 0.0
2017-May-13 09:57N 26°05' W 080°07'0 0.0
2017-May-13 09:30N 26°05' W 080°07'0 1.0
2017-May-13 09:00N 26°06' W 080°07'510.2
2017-May-13 08:30N 26°05' W 080°01'714.8
2017-May-13 08:00N 26°02' W 079°54'918.7
2017-May-13 07:30N 25°58' W 079°44'816.6
2017-May-13 07:00N 25°51' W 079°39'918.2
2017-May-13 06:30N 25°42' W 079°40'918.1
2017-May-13 06:00N 25°33' W 079°39'917.8
2017-May-13 05:30N 25°25' W 079°37'917.7
2017-May-13 05:00N 25°16' W 079°36'917.8
2017-May-13 04:30N 25°07' W 079°36'1020.7
2017-May-13 04:00N 24°57' W 079°36'1121.5
2017-May-13 03:30N 24°46' W 079°39'1121.2
2017-May-13 03:00N 24°36' W 079°41'  

Dump ship's entire track history